createdAt,value
2018-04-09T00:00:51.825Z,32.10
2018-04-09T00:03:19.319Z,34.13
2018-04-09T00:05:46.822Z,33.90
2018-04-09T00:08:14.347Z,34.07
2018-04-09T00:10:41.860Z,33.70
2018-04-09T00:13:09.361Z,34.27
2018-04-09T00:15:36.877Z,33.93
2018-04-09T00:18:04.359Z,34.87
2018-04-09T00:20:31.867Z,35.80
2018-04-09T00:22:59.364Z,36.43
2018-04-09T00:25:26.876Z,35.70
2018-04-09T00:27:54.387Z,36.57
2018-04-09T00:30:21.875Z,37.00
2018-04-09T00:32:49.404Z,35.87
2018-04-09T00:35:16.978Z,35.80
2018-04-09T00:37:44.466Z,37.50
2018-04-09T00:40:11.982Z,36.87
2018-04-09T00:42:39.542Z,37.03
2018-04-09T00:45:07.042Z,37.80
2018-04-09T00:47:34.545Z,37.03
2018-04-09T00:50:02.046Z,37.13
2018-04-09T00:52:29.517Z,37.53
2018-04-09T00:54:57.008Z,36.47
2018-04-09T00:57:24.514Z,36.53
2018-04-09T00:59:52.039Z,37.83
2018-04-09T01:02:19.571Z,36.63
2018-04-09T01:04:47.088Z,36.30
2018-04-09T01:07:14.587Z,36.83
2018-04-09T01:09:42.112Z,37.50
2018-04-09T01:12:09.593Z,36.53
2018-04-09T01:14:37.156Z,37.60
2018-04-09T01:17:04.626Z,35.27
2018-04-09T01:19:32.107Z,37.47
2018-04-09T01:21:59.594Z,38.07
2018-04-09T01:24:27.125Z,36.73
2018-04-09T01:26:54.632Z,38.90
2018-04-09T01:29:22.141Z,36.17
2018-04-09T01:31:49.654Z,38.50
2018-04-09T01:34:17.176Z,37.33
2018-04-09T01:36:44.689Z,38.97
2018-04-09T01:39:12.201Z,39.10
2018-04-09T01:41:39.704Z,38.53
2018-04-09T01:44:07.241Z,37.83
2018-04-09T01:46:34.745Z,39.40
2018-04-09T01:49:02.253Z,39.20
2018-04-09T01:51:29.802Z,40.73
2018-04-09T01:53:57.313Z,39.07
2018-04-09T01:56:24.951Z,39.50
2018-04-09T01:58:52.487Z,40.93
2018-04-09T02:01:19.990Z,41.60
2018-04-09T02:03:47.489Z,40.67
2018-04-09T02:06:14.992Z,40.70
2018-04-09T02:08:42.518Z,40.33
2018-04-09T02:11:10.020Z,39.90
2018-04-09T02:13:37.526Z,40.70
2018-04-09T02:16:05.024Z,42.97
2018-04-09T02:18:32.522Z,41.27
2018-04-09T02:21:00.012Z,40.70
2018-04-09T02:23:27.522Z,42.57
2018-04-09T02:25:55.031Z,40.87
2018-04-09T02:28:22.542Z,41.43
2018-04-09T02:30:50.126Z,40.13
2018-04-09T02:33:17.654Z,41.23
2018-04-09T02:35:45.163Z,39.87
2018-04-09T02:38:12.655Z,40.10
2018-04-09T02:40:40.268Z,42.17
2018-04-09T02:43:07.772Z,41.63
2018-04-09T02:45:35.276Z,41.13
2018-04-09T02:48:02.770Z,41.20
2018-04-09T02:50:30.274Z,41.90
2018-04-09T02:52:57.789Z,41.43
2018-04-09T02:55:25.289Z,41.37
2018-04-09T02:57:52.788Z,42.33
2018-04-09T03:00:20.273Z,41.40
2018-04-09T03:02:47.786Z,42.13
2018-04-09T03:05:15.389Z,43.10
2018-04-09T03:07:42.860Z,41.90
2018-04-09T03:10:10.416Z,42.40
2018-04-09T03:12:37.915Z,43.20
2018-04-09T03:15:05.415Z,43.77
2018-04-09T03:17:32.926Z,40.90
2018-04-09T03:20:00.448Z,42.17
2018-04-09T03:22:27.948Z,42.33
2018-04-09T03:24:55.451Z,42.53
2018-04-09T03:27:22.946Z,44.57
2018-04-09T03:29:50.443Z,42.90
2018-04-09T03:32:17.932Z,44.00
2018-04-09T03:34:45.417Z,43.47
2018-04-09T03:37:12.895Z,42.43
2018-04-09T03:39:40.366Z,42.77
2018-04-09T03:42:07.867Z,42.73
2018-04-09T03:44:35.354Z,43.23
2018-04-09T03:47:02.862Z,45.13
2018-04-09T03:49:30.358Z,44.63
2018-04-09T03:51:57.842Z,43.80
2018-04-09T03:54:25.382Z,44.97
2018-04-09T03:56:52.871Z,44.33
2018-04-09T03:59:20.381Z,45.97
2018-04-09T04:01:47.888Z,45.30
2018-04-09T04:04:15.373Z,44.73
2018-04-09T04:06:42.886Z,44.13
2018-04-09T04:09:10.424Z,45.47
2018-04-09T04:11:37.925Z,44.70
2018-04-09T04:14:05.448Z,44.67
2018-04-09T04:16:44.766Z,45.47
2018-04-09T04:19:23.966Z,45.03
2018-04-09T04:21:51.452Z,45.03
2018-04-09T04:24:18.934Z,45.40
2018-04-09T04:26:46.429Z,45.23
2018-04-09T04:29:13.941Z,45.07
2018-04-09T04:31:41.488Z,46.33
2018-04-09T04:34:08.976Z,45.90
2018-04-09T04:36:36.471Z,45.77
2018-04-09T04:39:04.025Z,46.40
2018-04-09T04:41:31.524Z,46.17
2018-04-09T04:43:59.077Z,48.97
2018-04-09T04:46:26.639Z,48.50
2018-04-09T04:48:54.146Z,45.83
2018-04-09T04:51:21.746Z,46.40
2018-04-09T04:53:49.263Z,45.33
2018-04-09T04:56:16.773Z,47.43
2018-04-09T04:58:44.277Z,46.37
2018-04-09T05:01:11.792Z,45.53
2018-04-09T05:03:39.298Z,46.43
2018-04-09T05:06:06.903Z,46.27
2018-04-09T05:08:34.426Z,45.67
2018-04-09T05:11:01.976Z,47.43
2018-04-09T05:13:29.492Z,45.87
2018-04-09T05:15:57.019Z,47.97
2018-04-09T05:18:24.566Z,47.20
2018-04-09T05:20:52.084Z,44.70
2018-04-09T05:23:19.603Z,44.43
2018-04-09T05:25:47.123Z,46.13
2018-04-09T05:28:14.610Z,43.53
2018-04-09T05:30:42.124Z,47.70
2018-04-09T05:33:09.634Z,47.67
2018-04-09T05:35:37.183Z,48.60
2018-04-09T05:38:04.686Z,47.63
2018-04-09T05:40:32.222Z,47.97
2018-04-09T05:42:59.724Z,45.93
2018-04-09T05:45:27.217Z,47.13
2018-04-09T05:47:54.738Z,48.80
2018-04-09T05:50:22.337Z,51.00
2018-04-09T05:52:49.821Z,48.37
2018-04-09T05:55:17.304Z,47.77
2018-04-09T05:57:44.809Z,49.93
2018-04-09T06:00:12.334Z,47.30
2018-04-09T06:02:39.806Z,45.93
2018-04-09T06:05:07.298Z,45.73
2018-04-09T06:07:34.792Z,47.00
2018-04-09T06:10:02.291Z,44.87
2018-04-09T06:12:29.768Z,42.63
2018-04-09T06:14:57.293Z,43.60
2018-04-09T06:17:24.758Z,42.50
2018-04-09T06:19:52.637Z,43.90
2018-04-09T06:22:20.161Z,43.13
2018-04-09T06:24:47.691Z,42.23
2018-04-09T06:27:15.238Z,43.87
2018-04-09T06:29:42.764Z,42.03
2018-04-09T06:32:10.272Z,41.47
2018-04-09T06:34:37.785Z,42.23
2018-04-09T06:37:05.301Z,42.57
2018-04-09T06:39:32.800Z,40.80
2018-04-09T06:42:00.310Z,40.90
2018-04-09T06:44:27.797Z,40.30
2018-04-09T06:46:55.298Z,42.20
2018-04-09T06:49:22.805Z,40.13
2018-04-09T06:51:50.327Z,41.97
2018-04-09T06:54:17.818Z,39.07
2018-04-09T06:56:45.315Z,40.30
2018-04-09T06:59:12.834Z,39.13
2018-04-09T07:01:40.361Z,41.70
2018-04-09T07:04:07.864Z,40.57
2018-04-09T07:06:35.376Z,38.03
2018-04-09T07:09:02.895Z,38.80
2018-04-09T07:11:30.342Z,39.97
2018-04-09T07:13:57.907Z,37.60
2018-04-09T07:16:25.456Z,37.63
2018-04-09T07:18:53.012Z,39.47
2018-04-09T07:21:20.494Z,39.30
2018-04-09T07:23:47.988Z,36.53
2018-04-09T07:26:15.505Z,36.07
2018-04-09T07:28:43.020Z,35.97
2018-04-09T07:31:10.556Z,36.53
2018-04-09T07:33:38.058Z,36.97
2018-04-09T07:36:05.569Z,36.47
2018-04-09T07:38:33.075Z,37.13
2018-04-09T07:41:00.564Z,35.90
2018-04-09T07:43:28.083Z,36.20
2018-04-09T07:45:55.571Z,36.57
2018-04-09T07:48:23.073Z,37.40
2018-04-09T07:50:50.651Z,36.13
2018-04-09T07:53:18.130Z,37.20
2018-04-09T07:55:45.665Z,38.43
2018-04-09T07:58:13.184Z,36.50
2018-04-09T08:00:40.681Z,37.73
2018-04-09T08:03:08.175Z,36.27
2018-04-09T08:05:35.655Z,37.13
2018-04-09T08:08:03.143Z,37.27
2018-04-09T08:10:30.638Z,37.17
2018-04-09T08:12:58.119Z,35.13
2018-04-09T08:15:25.720Z,37.03
2018-04-09T08:17:53.200Z,37.23
2018-04-09T08:20:20.705Z,37.63
2018-04-09T08:22:48.183Z,38.50
2018-04-09T08:25:15.682Z,37.60
2018-04-09T08:27:43.204Z,37.03
2018-04-09T08:30:10.707Z,37.87
2018-04-09T08:32:38.220Z,36.53
2018-04-09T08:35:05.726Z,38.50
2018-04-09T08:37:33.201Z,37.20
2018-04-09T08:40:01.118Z,39.53
2018-04-09T08:42:29.330Z,38.90
2018-04-09T08:44:56.845Z,36.90
2018-04-09T08:47:26.714Z,34.60
2018-04-09T08:49:54.499Z,35.17
2018-04-09T08:52:22.029Z,36.00
2018-04-09T09:10:13.123Z,34.40
2018-04-09T09:12:40.703Z,34.27
2018-04-09T09:15:08.270Z,32.07
2018-04-09T09:17:35.852Z,33.87
2018-04-09T09:20:03.422Z,34.33
2018-04-09T09:22:31.604Z,32.07
2018-04-09T09:24:59.151Z,31.43
2018-04-09T09:27:27.123Z,31.07
2018-04-09T09:29:54.692Z,30.17
2018-04-09T09:32:22.258Z,28.17
2018-04-09T09:34:49.826Z,28.53
2018-04-09T09:37:17.395Z,28.63
2018-04-09T09:39:45.653Z,27.40
2018-04-09T09:42:13.230Z,28.20
2018-04-09T09:44:40.798Z,28.83
2018-04-09T09:47:09.031Z,28.10
2018-04-09T09:49:36.584Z,30.00
2018-04-09T09:52:04.159Z,29.47
2018-04-09T09:54:32.145Z,32.30
2018-04-09T09:57:00.062Z,33.20
2018-04-09T09:59:27.613Z,35.63
2018-04-09T10:01:55.155Z,33.80
2018-04-09T10:04:22.724Z,32.43
2018-04-09T10:06:50.884Z,33.97
2018-04-09T10:09:18.450Z,31.67
2018-04-09T10:11:45.998Z,32.20
2018-04-09T10:14:14.055Z,30.60
2018-04-09T10:16:41.611Z,31.27
2018-04-09T10:19:09.166Z,31.23
2018-04-09T10:21:37.690Z,28.97
2018-04-09T10:24:05.265Z,26.43
2018-04-09T10:26:32.823Z,27.83
2018-04-09T10:29:00.456Z,27.90
2018-04-09T10:31:28.020Z,28.23
2018-04-09T10:33:55.610Z,28.47
2018-04-09T10:36:23.155Z,27.40
2018-04-09T10:38:50.735Z,25.53
2018-04-09T10:41:18.295Z,22.23
2018-04-09T10:43:45.856Z,24.80
2018-04-09T10:46:13.421Z,23.97
2018-04-09T10:48:40.992Z,26.33
2018-04-09T10:51:08.565Z,24.27
2018-04-09T10:53:36.141Z,25.00
2018-04-09T10:56:03.705Z,25.47
2018-04-09T10:58:31.257Z,24.97
2018-04-09T11:00:59.438Z,25.77
2018-04-09T11:03:26.988Z,21.37
2018-04-09T11:05:54.564Z,22.20
2018-04-09T11:08:22.142Z,21.27
2018-04-09T11:10:49.754Z,21.63
2018-04-09T11:13:17.315Z,22.77
2018-04-09T11:15:44.879Z,22.17
2018-04-09T11:18:12.433Z,22.50
2018-04-09T11:20:39.995Z,23.33
2018-04-09T11:23:07.550Z,23.50
2018-04-09T11:25:35.118Z,26.63
2018-04-09T11:28:02.675Z,29.10
2018-04-09T11:30:30.234Z,28.17
2018-04-09T11:32:57.850Z,28.10
2018-04-09T11:35:25.437Z,26.63
2018-04-09T11:37:53.026Z,27.57
2018-04-09T11:40:20.570Z,30.27
2018-04-09T11:42:48.133Z,28.10
2018-04-09T11:45:15.677Z,28.03
2018-04-09T11:47:43.219Z,27.17
2018-04-09T11:50:10.776Z,26.83
2018-04-09T11:52:38.343Z,25.50
2018-04-09T11:55:05.967Z,25.27
2018-04-09T11:57:33.547Z,24.10
2018-04-09T12:00:01.102Z,23.50
2018-04-09T12:02:28.659Z,22.83
2018-04-09T12:04:56.236Z,24.57
2018-04-09T12:07:23.810Z,24.40
2018-04-09T12:09:51.382Z,25.77
2018-04-09T12:12:18.994Z,26.53
2018-04-09T12:14:46.643Z,25.73
2018-04-09T12:17:14.199Z,27.80
2018-04-09T12:19:41.764Z,26.13
2018-04-09T12:22:09.372Z,24.63
2018-04-09T12:24:36.948Z,23.97
2018-04-09T12:27:04.527Z,26.27
2018-04-09T12:29:32.184Z,28.20
2018-04-09T12:31:59.814Z,26.50
2018-04-09T12:34:27.403Z,26.27
2018-04-09T12:36:54.963Z,25.47
2018-04-09T12:39:22.545Z,25.97
2018-04-09T12:41:50.130Z,25.50
2018-04-09T12:44:17.704Z,23.67
2018-04-09T12:46:45.283Z,25.43
2018-04-09T12:49:12.864Z,24.70
2018-04-09T12:51:40.446Z,23.97
2018-04-09T12:54:08.005Z,25.43
2018-04-09T12:56:35.612Z,23.70
2018-04-09T12:59:03.259Z,20.77
2018-04-09T13:01:30.879Z,19.20
2018-04-09T13:03:58.450Z,21.07
2018-04-09T13:06:25.994Z,24.10
2018-04-09T13:08:53.602Z,22.97
2018-04-09T13:11:21.173Z,26.47
2018-04-09T13:13:48.724Z,24.97
2018-04-09T13:16:16.292Z,26.10
2018-04-09T13:18:43.870Z,21.87
2018-04-09T13:21:12.056Z,22.03
2018-04-09T13:23:39.627Z,20.53
2018-04-09T13:26:07.211Z,18.43
2018-04-09T13:28:34.773Z,18.60
2018-04-09T13:31:02.365Z,19.23
2018-04-09T13:33:29.945Z,21.13
2018-04-09T13:35:57.522Z,21.90
2018-04-09T13:38:25.081Z,21.53
2018-04-09T13:40:52.651Z,22.50
2018-04-09T13:43:20.213Z,21.17
2018-04-09T13:45:47.757Z,21.20
2018-04-09T13:48:15.311Z,21.20
2018-04-09T13:50:42.860Z,23.40
2018-04-09T13:53:10.445Z,21.90
2018-04-09T13:55:39.152Z,21.97
2018-04-09T13:58:06.713Z,23.93
2018-04-09T14:00:34.824Z,24.80
2018-04-09T14:03:02.403Z,23.10
2018-04-09T14:05:30.098Z,22.90
2018-04-09T14:07:57.656Z,22.70
2018-04-09T14:10:26.060Z,22.33
2018-04-09T14:12:53.617Z,24.73
2018-04-09T14:15:21.240Z,25.30
2018-04-09T14:17:48.816Z,25.70
2018-04-09T14:20:16.402Z,25.17
2018-04-09T14:22:43.970Z,26.87
2018-04-09T14:25:11.523Z,25.90
2018-04-09T14:27:39.087Z,26.00
2018-04-09T14:30:06.631Z,25.57
2018-04-09T14:32:34.189Z,24.00
2018-04-09T14:35:01.780Z,27.10
2018-04-09T14:37:29.334Z,23.30
2018-04-09T14:39:56.957Z,25.07
2018-04-09T14:42:24.534Z,25.67
2018-04-09T14:44:52.112Z,25.33
2018-04-09T14:47:19.653Z,23.83
2018-04-09T14:49:47.234Z,24.70
2018-04-09T14:52:14.794Z,26.33
2018-04-09T14:54:42.333Z,27.43
2018-04-09T14:57:09.877Z,27.87
2018-04-09T14:59:37.466Z,28.03
2018-04-09T15:02:05.078Z,28.83
2018-04-09T15:04:32.653Z,27.20
2018-04-09T15:07:00.186Z,26.77
2018-04-09T15:09:27.725Z,27.53
2018-04-09T15:11:55.284Z,27.73
2018-04-09T15:14:22.838Z,27.37
2018-04-09T15:16:50.458Z,27.80
2018-04-09T15:19:18.010Z,27.77
2018-04-09T15:21:45.546Z,29.80
2018-04-09T15:24:13.115Z,30.33
2018-04-09T15:26:40.677Z,29.33
2018-04-09T15:29:08.258Z,30.37
2018-04-09T15:31:35.885Z,28.90
2018-04-09T15:34:03.446Z,32.23
2018-04-09T15:36:31.017Z,27.17
2018-04-09T15:38:58.571Z,28.17
2018-04-09T15:41:26.149Z,26.17
2018-04-09T15:43:53.714Z,27.67
2018-04-09T15:46:21.254Z,26.67
2018-04-09T15:48:48.866Z,25.90
2018-04-09T15:51:16.427Z,24.63
2018-04-09T15:53:43.990Z,25.37
2018-04-09T15:56:11.543Z,23.57
2018-04-09T15:58:39.130Z,23.97
2018-04-09T16:01:06.706Z,23.60
2018-04-09T16:03:34.725Z,22.07
2018-04-09T16:06:02.297Z,22.37
2018-04-09T16:08:29.845Z,23.93
2018-04-09T16:10:57.405Z,23.07
2018-04-09T16:13:24.965Z,23.00
2018-04-09T16:15:52.518Z,22.83
2018-04-09T16:18:20.291Z,21.77
2018-04-09T16:20:47.843Z,22.40
2018-04-09T16:23:15.389Z,22.57
2018-04-09T16:25:46.247Z,22.20
2018-04-09T16:28:13.793Z,23.10
2018-04-09T16:30:41.359Z,24.17
2018-04-09T16:33:08.939Z,22.40
2018-04-09T16:35:36.592Z,23.93
2018-04-09T16:38:04.164Z,24.10
2018-04-09T16:40:31.756Z,26.30
2018-04-09T16:42:59.399Z,25.80
2018-04-09T16:45:26.965Z,26.23
2018-04-09T16:47:54.512Z,25.47
2018-04-09T16:50:22.106Z,24.27
2018-04-09T16:52:49.689Z,25.20
2018-04-09T16:55:17.266Z,26.07
2018-04-09T16:57:44.883Z,27.03
2018-04-09T17:00:12.451Z,26.67
2018-04-09T17:02:40.032Z,25.93
2018-04-09T17:05:07.631Z,27.93
2018-04-09T17:07:35.177Z,26.93
2018-04-09T17:10:02.749Z,26.17
2018-04-09T17:12:30.377Z,26.57
2018-04-09T17:14:58.801Z,26.53
2018-04-09T17:17:27.375Z,25.93
2018-04-09T17:19:57.186Z,26.90
2018-04-09T17:22:24.742Z,26.80
2018-04-09T17:24:52.299Z,27.53
2018-04-09T17:27:19.878Z,27.30
2018-04-09T17:29:47.603Z,26.77
2018-04-09T17:32:16.645Z,27.33
2018-04-09T17:34:45.316Z,26.80
2018-04-09T17:37:19.533Z,27.57
2018-04-09T17:39:47.129Z,26.90
2018-04-09T17:42:14.717Z,26.90
2018-04-09T17:44:42.958Z,27.83
2018-04-09T17:47:10.519Z,26.90
2018-04-09T17:49:38.155Z,27.27
2018-04-09T17:52:16.456Z,26.77
2018-04-09T17:54:44.013Z,27.40
2018-04-09T17:57:22.387Z,26.70
2018-04-09T17:59:49.937Z,27.23
2018-04-09T18:02:18.857Z,25.17
2018-04-09T18:04:46.425Z,24.50
2018-04-09T18:07:17.377Z,24.20
2018-04-09T18:09:44.990Z,22.53
2018-04-09T18:12:12.557Z,22.13
2018-04-09T18:14:40.209Z,23.90
2018-04-09T18:17:07.773Z,21.80
2018-04-09T18:19:35.365Z,22.07
2018-04-09T18:22:02.945Z,23.77
2018-04-09T18:24:30.527Z,22.80
2018-04-09T18:26:58.103Z,21.73
2018-04-09T18:29:25.738Z,22.00
2018-04-09T18:31:53.381Z,21.73
2018-04-09T18:34:20.979Z,22.47
2018-04-09T18:36:48.582Z,21.87
2018-04-09T18:39:16.150Z,23.27
2018-04-09T18:41:43.715Z,23.07
2018-04-09T18:44:11.284Z,23.33
2018-04-09T18:46:38.877Z,23.00
2018-04-09T18:49:06.464Z,23.37
2018-04-09T18:51:34.027Z,22.17
2018-04-09T18:54:01.567Z,22.30
2018-04-09T18:56:29.139Z,22.03
2018-04-09T18:58:56.679Z,21.17
2018-04-09T19:01:24.310Z,23.03
2018-04-09T19:03:51.877Z,20.83
2018-04-09T19:06:19.627Z,21.77
2018-04-09T19:08:48.998Z,20.73
2018-04-09T19:11:16.553Z,21.40
2018-04-09T19:13:44.276Z,21.90
2018-04-09T19:16:11.857Z,21.83
2018-04-09T19:18:39.419Z,21.53
2018-04-09T19:21:06.986Z,20.23
2018-04-09T19:23:35.382Z,21.23
2018-04-09T19:26:03.053Z,22.20
2018-04-09T19:28:31.004Z,22.47
2018-04-09T19:31:16.125Z,20.77
2018-04-09T19:33:46.572Z,21.40
2018-04-09T19:52:57.200Z,21.47
2018-04-09T19:55:24.811Z,20.80
2018-04-09T19:57:52.362Z,20.20
2018-04-09T20:00:20.026Z,20.67
2018-04-09T20:02:47.622Z,21.57
2018-04-09T20:05:15.266Z,20.40
2018-04-09T20:07:42.875Z,20.50
2018-04-09T20:10:10.483Z,20.40
2018-04-09T20:12:38.102Z,21.93
2018-04-09T20:15:05.692Z,21.50
2018-04-09T20:17:33.356Z,20.80
2018-04-09T20:20:01.085Z,20.83
2018-04-09T20:22:28.677Z,20.07
2018-04-09T20:24:56.230Z,20.73
2018-04-09T20:27:23.786Z,22.30
2018-04-09T20:29:51.363Z,20.27
2018-04-09T20:32:19.528Z,20.53
2018-04-09T20:34:47.088Z,21.43
2018-04-09T20:37:14.755Z,20.57
2018-04-09T20:39:42.394Z,21.20
2018-04-09T20:42:10.016Z,20.33
2018-04-09T20:44:37.594Z,21.47
2018-04-09T20:47:05.200Z,21.33
2018-04-09T20:49:32.802Z,20.30
2018-04-09T20:52:00.477Z,21.77
2018-04-09T20:54:35.393Z,23.33
2018-04-09T20:57:04.400Z,22.70
2018-04-09T20:59:32.033Z,23.27
2018-04-09T21:01:59.604Z,23.93
2018-04-09T21:04:27.179Z,23.63
2018-04-09T21:06:54.813Z,23.03
2018-04-09T21:09:22.411Z,23.63
2018-04-09T21:11:49.972Z,22.63
2018-04-09T21:14:17.580Z,24.13
2018-04-09T21:16:45.161Z,24.40
2018-04-09T21:19:12.729Z,23.83
2018-04-09T21:21:40.285Z,23.50
2018-04-09T21:24:07.863Z,24.00
2018-04-09T21:26:35.430Z,25.07
2018-04-09T21:29:02.991Z,23.80
2018-04-09T21:31:30.583Z,25.43
2018-04-09T21:33:58.170Z,24.70
2018-04-09T21:36:25.748Z,24.83
2018-04-09T21:38:53.348Z,24.83
2018-04-09T21:41:20.907Z,25.80
2018-04-09T21:43:48.474Z,25.60
2018-04-09T21:46:16.072Z,25.50
2018-04-09T21:48:43.643Z,25.27
2018-04-09T21:51:11.209Z,25.47
2018-04-09T21:53:38.774Z,26.07
2018-04-09T21:56:06.344Z,25.83
2018-04-09T21:58:33.928Z,25.80
2018-04-09T22:01:02.084Z,25.60
2018-04-09T22:03:29.647Z,25.80
2018-04-09T22:05:57.193Z,27.20
2018-04-09T22:08:24.734Z,27.33
2018-04-09T22:10:52.271Z,26.57
2018-04-09T22:13:19.811Z,27.33
2018-04-09T22:15:47.359Z,26.80
2018-04-09T22:18:14.914Z,25.73
2018-04-09T22:20:42.486Z,26.27
2018-04-09T22:23:10.033Z,27.93
2018-04-09T22:25:37.592Z,27.17
2018-04-09T22:28:05.143Z,25.77
2018-04-09T22:30:32.701Z,27.40
2018-04-09T22:33:00.304Z,27.40
2018-04-09T22:35:27.858Z,26.43
2018-04-09T22:37:55.452Z,27.30
2018-04-09T22:40:22.989Z,28.43
2018-04-09T22:42:50.562Z,26.80
2018-04-09T22:45:18.128Z,27.27
2018-04-09T22:47:45.719Z,24.73
2018-04-09T22:50:13.303Z,27.40
2018-04-09T22:52:40.873Z,26.00
2018-04-09T22:55:08.464Z,26.13
2018-04-09T22:57:36.024Z,26.60
2018-04-09T23:00:03.598Z,27.03
2018-04-09T23:02:31.154Z,27.33
2018-04-09T23:04:58.696Z,27.07
2018-04-09T23:07:26.255Z,27.30
2018-04-09T23:09:53.865Z,26.80
2018-04-09T23:12:21.474Z,26.10
2018-04-09T23:14:49.111Z,25.73
2018-04-09T23:17:17.069Z,25.13
2018-04-09T23:19:44.625Z,26.20
2018-04-09T23:22:12.207Z,26.97
2018-04-09T23:24:39.775Z,26.10
2018-04-09T23:27:07.434Z,27.60
2018-04-09T23:29:34.955Z,29.30
2018-04-09T23:32:02.498Z,27.27
2018-04-09T23:34:30.051Z,29.90
2018-04-09T23:36:57.605Z,29.53
2018-04-09T23:39:25.155Z,29.87
2018-04-09T23:41:52.745Z,29.37
2018-04-09T23:44:20.303Z,29.93
2018-04-09T23:46:47.855Z,30.13
2018-04-09T23:49:15.423Z,29.57
2018-04-09T23:51:42.977Z,29.17
2018-04-09T23:54:10.539Z,30.40
2018-04-09T23:56:38.117Z,29.07
2018-04-09T23:59:05.713Z,29.67
